sensor_id;sensor_type;location;lat;lon;timestamp;pressure;altitude;pressure_sealevel;temperature;humidity
57847;BME280;43675;50.030;21.952;2023-01-25T00:02:00;100624.80;;;2.31;77.49
57847;BME280;43675;50.030;21.952;2023-01-25T00:04:27;100621.94;;;2.34;77.32
57847;BME280;43675;50.030;21.952;2023-01-25T00:06:54;100627.77;;;2.36;77.53
57847;BME280;43675;50.030;21.952;2023-01-25T00:09:22;100624.86;;;2.37;77.49
57847;BME280;43675;50.030;21.952;2023-01-25T00:11:50;100626.23;;;2.38;77.33
57847;BME280;43675;50.030;21.952;2023-01-25T00:14:16;100625.17;;;2.35;77.10
57847;BME280;43675;50.030;21.952;2023-01-25T00:16:43;100619.53;;;2.33;77.30
57847;BME280;43675;50.030;21.952;2023-01-25T00:19:10;100616.83;;;2.31;77.32
57847;BME280;43675;50.030;21.952;2023-01-25T00:21:37;100614.36;;;2.29;77.31
57847;BME280;43675;50.030;21.952;2023-01-25T00:24:04;100611.63;;;2.14;77.61
57847;BME280;43675;50.030;21.952;2023-01-25T00:26:33;100613.77;;;2.02;77.61
57847;BME280;43675;50.030;21.952;2023-01-25T00:29:01;100618.64;;;2.07;77.77
57847;BME280;43675;50.030;21.952;2023-01-25T00:31:40;100619.50;;;2.17;77.70
57847;BME280;43675;50.030;21.952;2023-01-25T00:37:14;100613.73;;;2.28;77.40
57847;BME280;43675;50.030;21.952;2023-01-25T00:39:44;100610.13;;;2.31;77.33
57847;BME280;43675;50.030;21.952;2023-01-25T00:42:14;100609.45;;;2.24;77.32
57847;BME280;43675;50.030;21.952;2023-01-25T00:44:41;100602.88;;;2.08;77.45
57847;BME280;43675;50.030;21.952;2023-01-25T00:47:09;100599.89;;;2.10;77.50
57847;BME280;43675;50.030;21.952;2023-01-25T00:49:37;100594.34;;;2.16;77.25
57847;BME280;43675;50.030;21.952;2023-01-25T00:52:04;100593.73;;;2.19;76.99
57847;BME280;43675;50.030;21.952;2023-01-25T00:54:31;100591.20;;;2.20;77.03
57847;BME280;43675;50.030;21.952;2023-01-25T00:56:57;100591.45;;;2.21;77.10
57847;BME280;43675;50.030;21.952;2023-01-25T00:59:24;100591.79;;;2.10;76.88
57847;BME280;43675;50.030;21.952;2023-01-25T01:01:52;100587.51;;;1.89;77.37
57847;BME280;43675;50.030;21.952;2023-01-25T01:04:19;100577.49;;;1.74;77.76
57847;BME280;43675;50.030;21.952;2023-01-25T01:06:46;100575.20;;;1.69;77.86
57847;BME280;43675;50.030;21.952;2023-01-25T01:09:15;100572.20;;;1.60;77.85
57847;BME280;43675;50.030;21.952;2023-01-25T01:11:42;100572.09;;;1.52;78.13
57847;BME280;43675;50.030;21.952;2023-01-25T01:14:09;100569.81;;;1.44;78.21
57847;BME280;43675;50.030;21.952;2023-01-25T01:16:36;100569.02;;;1.41;78.32
57847;BME280;43675;50.030;21.952;2023-01-25T01:19:03;100563.60;;;1.47;78.15
57847;BME280;43675;50.030;21.952;2023-01-25T01:21:30;100561.76;;;1.44;78.23
57847;BME280;43675;50.030;21.952;2023-01-25T01:23:57;100561.38;;;1.39;78.22
57847;BME280;43675;50.030;21.952;2023-01-25T01:26:24;100564.86;;;1.35;78.35
57847;BME280;43675;50.030;21.952;2023-01-25T01:28:50;100562.00;;;1.30;78.49
57847;BME280;43675;50.030;21.952;2023-01-25T01:31:19;100560.84;;;1.27;78.50
57847;BME280;43675;50.030;21.952;2023-01-25T01:33:50;100556.27;;;1.25;78.44
57847;BME280;43675;50.030;21.952;2023-01-25T01:36:20;100551.63;;;1.25;78.66
57847;BME280;43675;50.030;21.952;2023-01-25T01:38:47;100553.36;;;1.37;78.35
57847;BME280;43675;50.030;21.952;2023-01-25T01:41:14;100556.12;;;1.36;78.40
57847;BME280;43675;50.030;21.952;2023-01-25T01:43:41;100553.57;;;1.32;78.59
57847;BME280;43675;50.030;21.952;2023-01-25T01:48:53;100548.30;;;1.61;78.28
57847;BME280;43675;50.030;21.952;2023-01-25T01:56:59;100535.41;;;1.85;77.68
57847;BME280;43675;50.030;21.952;2023-01-25T01:59:33;100535.14;;;1.90;77.73
57847;BME280;43675;50.030;21.952;2023-01-25T02:02:02;100537.57;;;1.96;77.52
57847;BME280;43675;50.030;21.952;2023-01-25T02:04:29;100535.63;;;1.99;77.61
57847;BME280;43675;50.030;21.952;2023-01-25T02:07:07;100531.78;;;1.86;77.64
57847;BME280;43675;50.030;21.952;2023-01-25T02:09:36;100533.75;;;1.74;77.92
57847;BME280;43675;50.030;21.952;2023-01-25T02:12:04;100533.04;;;1.81;78.12
57847;BME280;43675;50.030;21.952;2023-01-25T02:14:32;100525.80;;;1.90;77.66
57847;BME280;43675;50.030;21.952;2023-01-25T02:16:59;100528.98;;;1.98;77.69
57847;BME280;43675;50.030;21.952;2023-01-25T02:20:09;100527.18;;;2.00;77.29
57847;BME280;43675;50.030;21.952;2023-01-25T02:25:14;100522.14;;;1.97;77.46
57847;BME280;43675;50.030;21.952;2023-01-25T02:27:47;100516.48;;;1.83;77.71
57847;BME280;43675;50.030;21.952;2023-01-25T02:30:14;100516.84;;;1.83;77.78
57847;BME280;43675;50.030;21.952;2023-01-25T02:32:41;100518.34;;;1.89;77.76
57847;BME280;43675;50.030;21.952;2023-01-25T02:35:17;100523.09;;;1.96;77.53
57847;BME280;43675;50.030;21.952;2023-01-25T02:37:44;100523.02;;;2.02;77.44
57847;BME280;43675;50.030;21.952;2023-01-25T02:40:11;100517.86;;;1.98;77.30
57847;BME280;43675;50.030;21.952;2023-01-25T02:42:41;100519.73;;;1.94;77.39
57847;BME280;43675;50.030;21.952;2023-01-25T02:45:10;100517.15;;;1.81;77.57
57847;BME280;43675;50.030;21.952;2023-01-25T02:47:38;100513.23;;;1.84;77.75
57847;BME280;43675;50.030;21.952;2023-01-25T02:50:06;100507.52;;;1.82;77.44
57847;BME280;43675;50.030;21.952;2023-01-25T02:52:32;100507.73;;;1.68;77.78
57847;BME280;43675;50.030;21.952;2023-01-25T02:54:59;100510.96;;;1.55;77.98
57847;BME280;43675;50.030;21.952;2023-01-25T02:57:26;100506.56;;;1.46;78.15
57847;BME280;43675;50.030;21.952;2023-01-25T02:59:52;100511.80;;;1.39;78.37
57847;BME280;43675;50.030;21.952;2023-01-25T03:02:19;100508.89;;;1.33;78.53
57847;BME280;43675;50.030;21.952;2023-01-25T03:04:45;100501.95;;;1.27;78.56
57847;BME280;43675;50.030;21.952;2023-01-25T03:07:12;100498.00;;;1.21;78.41
57847;BME280;43675;50.030;21.952;2023-01-25T03:09:38;100496.79;;;1.16;78.57
57847;BME280;43675;50.030;21.952;2023-01-25T03:12:05;100497.58;;;1.12;78.78
57847;BME280;43675;50.030;21.952;2023-01-25T03:14:32;100495.91;;;1.09;78.89
57847;BME280;43675;50.030;21.952;2023-01-25T03:16:58;100497.50;;;1.06;78.96
57847;BME280;43675;50.030;21.952;2023-01-25T03:19:25;100497.27;;;1.04;78.94
57847;BME280;43675;50.030;21.952;2023-01-25T03:21:51;100493.73;;;1.02;78.99
57847;BME280;43675;50.030;21.952;2023-01-25T03:24:18;100488.46;;;0.99;78.97
57847;BME280;43675;50.030;21.952;2023-01-25T03:26:44;100488.58;;;0.95;79.12
57847;BME280;43675;50.030;21.952;2023-01-25T03:29:11;100489.31;;;0.90;79.24
57847;BME280;43675;50.030;21.952;2023-01-25T03:31:37;100488.11;;;0.87;79.37
57847;BME280;43675;50.030;21.952;2023-01-25T03:34:04;100489.13;;;0.85;79.35
57847;BME280;43675;50.030;21.952;2023-01-25T03:36:30;100492.18;;;0.84;79.46
57847;BME280;43675;50.030;21.952;2023-01-25T03:38:57;100491.98;;;0.82;79.53
57847;BME280;43675;50.030;21.952;2023-01-25T03:41:24;100491.58;;;0.82;79.57
57847;BME280;43675;50.030;21.952;2023-01-25T03:43:50;100486.13;;;0.82;79.64
57847;BME280;43675;50.030;21.952;2023-01-25T03:46:17;100487.19;;;0.82;79.76
57847;BME280;43675;50.030;21.952;2023-01-25T03:48:43;100483.59;;;0.84;79.83
57847;BME280;43675;50.030;21.952;2023-01-25T03:51:10;100478.48;;;0.86;79.80
57847;BME280;43675;50.030;21.952;2023-01-25T03:53:36;100484.72;;;0.87;79.82
57847;BME280;43675;50.030;21.952;2023-01-25T03:56:06;100478.23;;;0.87;79.79
57847;BME280;43675;50.030;21.952;2023-01-25T03:58:35;100476.69;;;0.89;79.97
57847;BME280;43675;50.030;21.952;2023-01-25T04:01:04;100476.70;;;1.08;79.80
57847;BME280;43675;50.030;21.952;2023-01-25T04:03:32;100477.15;;;1.24;79.56
57847;BME280;43675;50.030;21.952;2023-01-25T04:05:59;100477.45;;;1.24;79.50
57847;BME280;43675;50.030;21.952;2023-01-25T04:08:26;100479.03;;;1.17;79.51
57847;BME280;43675;50.030;21.952;2023-01-25T04:10:55;100480.39;;;1.13;79.56
57847;BME280;43675;50.030;21.952;2023-01-25T04:13:23;100480.69;;;1.16;79.54
57847;BME280;43675;50.030;21.952;2023-01-25T04:15:50;100473.48;;;1.26;79.51
57847;BME280;43675;50.030;21.952;2023-01-25T04:18:16;100469.80;;;1.37;79.20
57847;BME280;43675;50.030;21.952;2023-01-25T04:20:43;100463.97;;;1.45;79.05
57847;BME280;43675;50.030;21.952;2023-01-25T04:23:10;100463.79;;;1.52;78.96
57847;BME280;43675;50.030;21.952;2023-01-25T04:25:37;100464.80;;;1.57;78.76
57847;BME280;43675;50.030;21.952;2023-01-25T04:28:04;100462.30;;;1.60;78.70
57847;BME280;43675;50.030;21.952;2023-01-25T04:30:30;100466.71;;;1.62;78.72
57847;BME280;43675;50.030;21.952;2023-01-25T04:33:02;100459.02;;;1.57;78.68
57847;BME280;43675;50.030;21.952;2023-01-25T04:35:30;100458.34;;;1.42;79.07
57847;BME280;43675;50.030;21.952;2023-01-25T04:37:57;100459.98;;;1.34;79.25
57847;BME280;43675;50.030;21.952;2023-01-25T04:40:25;100457.82;;;1.42;79.48
57847;BME280;43675;50.030;21.952;2023-01-25T04:42:52;100452.82;;;1.52;79.17
57847;BME280;43675;50.030;21.952;2023-01-25T04:45:18;100445.11;;;1.58;79.01
57847;BME280;43675;50.030;21.952;2023-01-25T04:47:45;100446.29;;;1.57;78.98
57847;BME280;43675;50.030;21.952;2023-01-25T04:50:11;100442.13;;;1.42;79.12
57847;BME280;43675;50.030;21.952;2023-01-25T04:52:38;100439.15;;;1.30;79.36
57847;BME280;43675;50.030;21.952;2023-01-25T04:55:05;100440.41;;;1.22;79.67
57847;BME280;43675;50.030;21.952;2023-01-25T04:57:32;100436.66;;;1.18;79.70
57847;BME280;43675;50.030;21.952;2023-01-25T04:59:59;100436.62;;;1.16;79.76
57847;BME280;43675;50.030;21.952;2023-01-25T05:02:26;100433.05;;;1.14;79.92
57847;BME280;43675;50.030;21.952;2023-01-25T05:04:53;100435.41;;;1.14;79.95
57847;BME280;43675;50.030;21.952;2023-01-25T05:07:19;100435.17;;;1.12;79.99
57847;BME280;43675;50.030;21.952;2023-01-25T05:09:46;100434.55;;;1.11;80.01
57847;BME280;43675;50.030;21.952;2023-01-25T05:12:12;100436.36;;;1.10;79.87
57847;BME280;43675;50.030;21.952;2023-01-25T05:14:39;100434.56;;;1.11;80.04
57847;BME280;43675;50.030;21.952;2023-01-25T05:17:06;100436.11;;;1.26;80.04
57847;BME280;43675;50.030;21.952;2023-01-25T05:19:34;100437.76;;;1.32;79.72
57847;BME280;43675;50.030;21.952;2023-01-25T05:22:02;100433.58;;;1.24;79.54
57847;BME280;43675;50.030;21.952;2023-01-25T05:24:31;100434.60;;;1.17;79.83
57847;BME280;43675;50.030;21.952;2023-01-25T05:26:58;100438.52;;;1.12;79.87
57847;BME280;43675;50.030;21.952;2023-01-25T05:29:36;100440.25;;;1.08;80.12
57847;BME280;43675;50.030;21.952;2023-01-25T05:32:05;100442.31;;;1.06;80.32
57847;BME280;43675;50.030;21.952;2023-01-25T05:34:32;100444.22;;;1.16;80.00
57847;BME280;43675;50.030;21.952;2023-01-25T05:37:00;100443.31;;;1.28;79.87
57847;BME280;43675;50.030;21.952;2023-01-25T05:39:27;100444.98;;;1.41;79.55
57847;BME280;43675;50.030;21.952;2023-01-25T05:41:54;100442.21;;;1.50;79.39
57847;BME280;43675;50.030;21.952;2023-01-25T05:44:21;100442.91;;;1.55;79.20
57847;BME280;43675;50.030;21.952;2023-01-25T05:46:48;100442.30;;;1.52;79.28
57847;BME280;43675;50.030;21.952;2023-01-25T05:49:15;100443.30;;;1.52;79.25
57847;BME280;43675;50.030;21.952;2023-01-25T05:51:42;100442.38;;;1.45;79.30
57847;BME280;43675;50.030;21.952;2023-01-25T05:54:12;100439.57;;;1.48;79.52
57847;BME280;43675;50.030;21.952;2023-01-25T05:56:39;100441.94;;;1.54;79.39
57847;BME280;43675;50.030;21.952;2023-01-25T05:59:06;100447.70;;;1.47;79.38
57847;BME280;43675;50.030;21.952;2023-01-25T06:01:32;100447.56;;;1.33;79.56
57847;BME280;43675;50.030;21.952;2023-01-25T06:03:59;100442.37;;;1.22;79.83
57847;BME280;43675;50.030;21.952;2023-01-25T06:06:25;100440.17;;;1.16;79.97
57847;BME280;43675;50.030;21.952;2023-01-25T06:08:52;100439.06;;;1.12;80.13
57847;BME280;43675;50.030;21.952;2023-01-25T06:11:21;100439.54;;;1.08;80.05
57847;BME280;43675;50.030;21.952;2023-01-25T06:13:48;100441.20;;;1.16;80.14
57847;BME280;43675;50.030;21.952;2023-01-25T06:16:16;100438.69;;;1.31;79.86
57847;BME280;43675;50.030;21.952;2023-01-25T06:18:43;100437.13;;;1.42;79.83
57847;BME280;43675;50.030;21.952;2023-01-25T06:21:10;100436.50;;;1.51;79.43
57847;BME280;43675;50.030;21.952;2023-01-25T06:23:36;100435.21;;;1.44;79.39
57847;BME280;43675;50.030;21.952;2023-01-25T06:26:06;100432.04;;;1.33;79.86
57847;BME280;43675;50.030;21.952;2023-01-25T06:28:35;100429.31;;;1.24;79.93
57847;BME280;43675;50.030;21.952;2023-01-25T06:31:25;100431.15;;;1.19;79.85
57847;BME280;43675;50.030;21.952;2023-01-25T06:33:52;100430.02;;;1.13;80.16
57847;BME280;43675;50.030;21.952;2023-01-25T06:36:20;100425.80;;;1.12;80.16
57847;BME280;43675;50.030;21.952;2023-01-25T06:38:51;100422.77;;;1.11;80.23
57847;BME280;43675;50.030;21.952;2023-01-25T06:41:18;100423.52;;;1.12;80.36
57847;BME280;43675;50.030;21.952;2023-01-25T06:43:46;100422.55;;;1.28;79.97
57847;BME280;43675;50.030;21.952;2023-01-25T06:46:15;100425.27;;;1.43;79.94
57847;BME280;43675;50.030;21.952;2023-01-25T06:48:42;100423.60;;;1.56;79.64
57847;BME280;43675;50.030;21.952;2023-01-25T06:51:10;100421.19;;;1.67;79.35
57847;BME280;43675;50.030;21.952;2023-01-25T06:53:40;100415.70;;;1.67;79.54
57847;BME280;43675;50.030;21.952;2023-01-25T06:56:19;100407.06;;;1.60;79.61
57847;BME280;43675;50.030;21.952;2023-01-25T06:58:47;100406.45;;;1.59;79.90
57847;BME280;43675;50.030;21.952;2023-01-25T07:01:16;100407.34;;;1.73;79.76
57847;BME280;43675;50.030;21.952;2023-01-25T07:03:46;100412.73;;;1.76;79.62
57847;BME280;43675;50.030;21.952;2023-01-25T07:06:13;100413.08;;;1.85;79.34
57847;BME280;43675;50.030;21.952;2023-01-25T07:08:40;100416.03;;;1.97;79.28
57847;BME280;43675;50.030;21.952;2023-01-25T07:11:09;100412.64;;;2.09;78.75
57847;BME280;43675;50.030;21.952;2023-01-25T07:13:36;100407.02;;;2.20;78.98
57847;BME280;43675;50.030;21.952;2023-01-25T07:16:05;100401.57;;;2.26;78.68
57847;BME280;43675;50.030;21.952;2023-01-25T07:18:33;100402.44;;;2.17;78.86
57847;BME280;43675;50.030;21.952;2023-01-25T07:21:06;100404.62;;;2.14;78.97
57847;BME280;43675;50.030;21.952;2023-01-25T07:23:33;100402.42;;;2.11;78.96
57847;BME280;43675;50.030;21.952;2023-01-25T07:26:00;100395.95;;;2.21;78.81
57847;BME280;43675;50.030;21.952;2023-01-25T07:28:27;100400.27;;;2.20;78.99
57847;BME280;43675;50.030;21.952;2023-01-25T07:30:54;100402.61;;;2.16;78.99
57847;BME280;43675;50.030;21.952;2023-01-25T07:33:20;100402.69;;;2.14;78.98
57847;BME280;43675;50.030;21.952;2023-01-25T07:35:47;100396.73;;;2.14;78.90
57847;BME280;43675;50.030;21.952;2023-01-25T07:38:13;100395.47;;;2.14;79.03
57847;BME280;43675;50.030;21.952;2023-01-25T07:40:40;100400.26;;;2.16;78.94
57847;BME280;43675;50.030;21.952;2023-01-25T07:43:06;100399.86;;;2.19;78.85
57847;BME280;43675;50.030;21.952;2023-01-25T07:45:33;100399.30;;;2.21;78.71
57847;BME280;43675;50.030;21.952;2023-01-25T07:47:59;100398.73;;;2.22;78.46
57847;BME280;43675;50.030;21.952;2023-01-25T07:50:26;100398.09;;;2.23;78.51
57847;BME280;43675;50.030;21.952;2023-01-25T07:52:53;100400.61;;;2.25;78.42
57847;BME280;43675;50.030;21.952;2023-01-25T07:55:20;100403.21;;;2.25;78.26
57847;BME280;43675;50.030;21.952;2023-01-25T07:57:47;100402.56;;;2.27;78.20
57847;BME280;43675;50.030;21.952;2023-01-25T08:00:14;100394.13;;;2.29;78.37
57847;BME280;43675;50.030;21.952;2023-01-25T08:02:41;100399.16;;;2.32;78.09
57847;BME280;43675;50.030;21.952;2023-01-25T08:05:08;100392.46;;;2.48;77.92
57847;BME280;43675;50.030;21.952;2023-01-25T08:07:34;100385.95;;;2.62;77.35
57847;BME280;43675;50.030;21.952;2023-01-25T08:10:01;100388.13;;;2.70;76.92
57847;BME280;43675;50.030;21.952;2023-01-25T08:12:27;100389.85;;;2.77;76.87
57847;BME280;43675;50.030;21.952;2023-01-25T08:14:54;100383.48;;;2.84;76.59
57847;BME280;43675;50.030;21.952;2023-01-25T08:17:20;100383.48;;;2.91;76.32
57847;BME280;43675;50.030;21.952;2023-01-25T08:19:47;100380.28;;;2.91;75.72
57847;BME280;43675;50.030;21.952;2023-01-25T08:22:14;100372.34;;;2.77;75.91
57847;BME280;43675;50.030;21.952;2023-01-25T08:24:40;100368.77;;;2.63;75.55
57847;BME280;43675;50.030;21.952;2023-01-25T08:27:07;100371.54;;;2.53;75.51
57847;BME280;43675;50.030;21.952;2023-01-25T08:29:33;100367.39;;;2.47;75.40
57847;BME280;43675;50.030;21.952;2023-01-25T08:32:00;100364.25;;;2.45;75.16
57847;BME280;43675;50.030;21.952;2023-01-25T08:34:26;100362.18;;;2.42;75.17
57847;BME280;43675;50.030;21.952;2023-01-25T08:36:53;100367.25;;;2.40;74.97
57847;BME280;43675;50.030;21.952;2023-01-25T08:39:19;100372.94;;;2.35;74.49
57847;BME280;43675;50.030;21.952;2023-01-25T08:41:46;100374.05;;;2.28;73.91
57847;BME280;43675;50.030;21.952;2023-01-25T08:44:12;100373.54;;;2.26;73.48
57847;BME280;43675;50.030;21.952;2023-01-25T08:46:39;100369.55;;;2.27;73.44
57847;BME280;43675;50.030;21.952;2023-01-25T08:49:06;100369.90;;;2.27;73.49
57847;BME280;43675;50.030;21.952;2023-01-25T08:51:32;100366.65;;;2.26;73.35
57847;BME280;43675;50.030;21.952;2023-01-25T08:54:04;100366.89;;;2.36;73.08
57847;BME280;43675;50.030;21.952;2023-01-25T08:56:31;100364.10;;;2.33;72.94
57847;BME280;43675;50.030;21.952;2023-01-25T08:58:58;100362.07;;;2.34;72.86
57847;BME280;43675;50.030;21.952;2023-01-25T09:01:24;100357.46;;;2.52;72.64
57847;BME280;43675;50.030;21.952;2023-01-25T09:03:53;100361.45;;;2.70;72.11
57847;BME280;43675;50.030;21.952;2023-01-25T09:06:20;100359.79;;;2.80;72.08
57847;BME280;43675;50.030;21.952;2023-01-25T09:08:47;100354.46;;;2.89;72.07
57847;BME280;43675;50.030;21.952;2023-01-25T09:11:19;100352.45;;;3.01;71.56
57847;BME280;43675;50.030;21.952;2023-01-25T09:13:46;100342.46;;;3.08;71.53
57847;BME280;43675;50.030;21.952;2023-01-25T09:16:15;100344.95;;;3.14;71.36
57847;BME280;43675;50.030;21.952;2023-01-25T09:18:43;100347.48;;;3.07;71.48
57847;BME280;43675;50.030;21.952;2023-01-25T09:21:15;100349.22;;;3.14;71.13
57847;BME280;43675;50.030;21.952;2023-01-25T09:23:42;100349.14;;;3.12;71.22
57847;BME280;43675;50.030;21.952;2023-01-25T09:26:10;100348.80;;;3.08;71.15
57847;BME280;43675;50.030;21.952;2023-01-25T09:28:37;100349.05;;;3.18;71.00
57847;BME280;43675;50.030;21.952;2023-01-25T09:31:05;100351.44;;;3.27;70.77
57847;BME280;43675;50.030;21.952;2023-01-25T09:33:34;100341.38;;;3.21;70.93
57847;BME280;43675;50.030;21.952;2023-01-25T09:36:02;100342.48;;;3.16;71.23
57847;BME280;43675;50.030;21.952;2023-01-25T09:38:29;100345.75;;;3.13;70.98
57847;BME280;43675;50.030;21.952;2023-01-25T09:43:55;100335.33;;;3.25;71.03
57847;BME280;43675;50.030;21.952;2023-01-25T09:54:45;100319.65;;;2.82;71.09
57847;BME280;43675;50.030;21.952;2023-01-25T09:57:17;100312.27;;;2.86;70.89
57847;BME280;43675;50.030;21.952;2023-01-25T09:59:46;100308.70;;;2.84;70.98
57847;BME280;43675;50.030;21.952;2023-01-25T10:02:23;100303.42;;;2.95;71.28
57847;BME280;43675;50.030;21.952;2023-01-25T10:04:56;100304.10;;;2.97;71.54
57847;BME280;43675;50.030;21.952;2023-01-25T10:07:33;100298.46;;;2.97;71.40
57847;BME280;43675;50.030;21.952;2023-01-25T10:10:10;100293.36;;;2.95;71.39
57847;BME280;43675;50.030;21.952;2023-01-25T10:12:39;100288.02;;;3.04;71.43
57847;BME280;43675;50.030;21.952;2023-01-25T10:15:20;100285.88;;;3.10;70.53
57847;BME280;43675;50.030;21.952;2023-01-25T10:17:58;100282.20;;;2.99;70.76
57847;BME280;43675;50.030;21.952;2023-01-25T10:21:20;100277.91;;;2.95;71.14
57847;BME280;43675;50.030;21.952;2023-01-25T10:31:21;100266.13;;;2.97;71.08
57847;BME280;43675;50.030;21.952;2023-01-25T10:33:52;100268.44;;;2.99;70.96
57847;BME280;43675;50.030;21.952;2023-01-25T10:36:26;100266.59;;;3.04;70.63
57847;BME280;43675;50.030;21.952;2023-01-25T10:38:54;100261.09;;;3.06;70.88
57847;BME280;43675;50.030;21.952;2023-01-25T10:41:29;100251.44;;;3.22;70.81
57847;BME280;43675;50.030;21.952;2023-01-25T10:43:59;100244.47;;;3.39;70.44
57847;BME280;43675;50.030;21.952;2023-01-25T10:46:26;100238.92;;;3.50;70.07
57847;BME280;43675;50.030;21.952;2023-01-25T10:48:54;100237.19;;;3.56;69.92
57847;BME280;43675;50.030;21.952;2023-01-25T10:51:31;100236.50;;;3.58;69.74
57847;BME280;43675;50.030;21.952;2023-01-25T10:54:02;100241.16;;;3.57;69.83
57847;BME280;43675;50.030;21.952;2023-01-25T10:56:29;100238.64;;;3.55;69.35
57847;BME280;43675;50.030;21.952;2023-01-25T10:59:07;100234.90;;;3.51;69.50
57847;BME280;43675;50.030;21.952;2023-01-25T11:01:40;100231.44;;;3.43;69.39
57847;BME280;43675;50.030;21.952;2023-01-25T11:06:51;100226.17;;;3.17;69.69
57847;BME280;43675;50.030;21.952;2023-01-25T11:12:02;100216.14;;;2.73;70.19
57847;BME280;43675;50.030;21.952;2023-01-25T11:14:30;100213.60;;;2.59;70.74
57847;BME280;43675;50.030;21.952;2023-01-25T11:16:59;100212.55;;;2.51;70.61
57847;BME280;43675;50.030;21.952;2023-01-25T11:19:39;100208.64;;;2.47;70.67
57847;BME280;43675;50.030;21.952;2023-01-25T11:24:45;100207.08;;;2.35;70.65
57847;BME280;43675;50.030;21.952;2023-01-25T11:27:22;100198.98;;;2.31;70.86
57847;BME280;43675;50.030;21.952;2023-01-25T11:32:31;100197.66;;;2.25;71.08
57847;BME280;43675;50.030;21.952;2023-01-25T11:34:58;100195.84;;;2.26;71.24
57847;BME280;43675;50.030;21.952;2023-01-25T11:40:15;100184.89;;;2.30;71.10
57847;BME280;43675;50.030;21.952;2023-01-25T11:48:52;100171.89;;;2.38;71.31
57847;BME280;43675;50.030;21.952;2023-01-25T11:54:05;100158.88;;;2.42;71.07
57847;BME280;43675;50.030;21.952;2023-01-25T12:02:00;100153.42;;;2.39;71.11
57847;BME280;43675;50.030;21.952;2023-01-25T12:07:13;100151.08;;;2.35;71.18
57847;BME280;43675;50.030;21.952;2023-01-25T12:12:17;100141.49;;;2.30;71.04
57847;BME280;43675;50.030;21.952;2023-01-25T12:17:44;100139.70;;;2.28;71.16
57847;BME280;43675;50.030;21.952;2023-01-25T12:23:10;100133.52;;;2.34;70.98
57847;BME280;43675;50.030;21.952;2023-01-25T12:26:25;100132.05;;;2.41;70.93
57847;BME280;43675;50.030;21.952;2023-01-25T12:34:36;100122.92;;;2.72;70.34
57847;BME280;43675;50.030;21.952;2023-01-25T12:37:17;100123.05;;;2.76;70.43
57847;BME280;43675;50.030;21.952;2023-01-25T12:39:55;100121.91;;;2.77;69.85
57847;BME280;43675;50.030;21.952;2023-01-25T12:42:28;100118.04;;;2.75;70.34
57847;BME280;43675;50.030;21.952;2023-01-25T12:47:47;100107.64;;;2.42;70.78
57847;BME280;43675;50.030;21.952;2023-01-25T12:50:22;100107.69;;;2.24;70.70
57847;BME280;43675;50.030;21.952;2023-01-25T12:52:54;100106.64;;;2.13;70.85
57847;BME280;43675;50.030;21.952;2023-01-25T12:55:24;100106.96;;;2.08;70.92
57847;BME280;43675;50.030;21.952;2023-01-25T13:06:16;100096.60;;;2.41;70.27
57847;BME280;43675;50.030;21.952;2023-01-25T13:11:45;100088.20;;;2.46;70.32
57847;BME280;43675;50.030;21.952;2023-01-25T13:16:51;100088.27;;;2.43;70.14
57847;BME280;43675;50.030;21.952;2023-01-25T13:21:58;100076.00;;;2.27;70.70
57847;BME280;43675;50.030;21.952;2023-01-25T13:24:31;100073.56;;;2.37;70.41
57847;BME280;43675;50.030;21.952;2023-01-25T13:27:00;100065.02;;;2.36;70.73
57847;BME280;43675;50.030;21.952;2023-01-25T13:31:54;100056.45;;;2.12;70.88
57847;BME280;43675;50.030;21.952;2023-01-25T13:39:51;100051.96;;;1.96;71.35
57847;BME280;43675;50.030;21.952;2023-01-25T13:42:25;100051.86;;;1.96;70.96
57847;BME280;43675;50.030;21.952;2023-01-25T13:45:00;100045.69;;;1.93;71.06
57847;BME280;43675;50.030;21.952;2023-01-25T13:47:32;100050.52;;;1.88;71.15
57847;BME280;43675;50.030;21.952;2023-01-25T13:50:19;100048.31;;;1.85;70.82
57847;BME280;43675;50.030;21.952;2023-01-25T13:53:02;100046.55;;;1.82;70.79
57847;BME280;43675;50.030;21.952;2023-01-25T13:55:37;100043.51;;;1.96;70.71
57847;BME280;43675;50.030;21.952;2023-01-25T13:58:17;100040.37;;;2.02;70.13
57847;BME280;43675;50.030;21.952;2023-01-25T14:00:55;100037.27;;;1.90;70.34
57847;BME280;43675;50.030;21.952;2023-01-25T14:03:33;100038.11;;;1.93;70.23
57847;BME280;43675;50.030;21.952;2023-01-25T14:06:00;100038.21;;;1.94;70.20
57847;BME280;43675;50.030;21.952;2023-01-25T14:08:27;100040.06;;;1.95;70.25
57847;BME280;43675;50.030;21.952;2023-01-25T14:10:55;100038.94;;;1.94;70.06
57847;BME280;43675;50.030;21.952;2023-01-25T14:13:22;100035.16;;;1.92;69.86
57847;BME280;43675;50.030;21.952;2023-01-25T14:15:59;100027.50;;;1.87;70.06
57847;BME280;43675;50.030;21.952;2023-01-25T14:18:33;100029.06;;;1.70;70.26
57847;BME280;43675;50.030;21.952;2023-01-25T14:23:36;100014.28;;;1.80;70.25
57847;BME280;43675;50.030;21.952;2023-01-25T14:26:03;100009.89;;;1.86;70.30
57847;BME280;43675;50.030;21.952;2023-01-25T14:28:29;100007.21;;;1.88;70.19
57847;BME280;43675;50.030;21.952;2023-01-25T14:30:57;100004.83;;;1.92;70.25
57847;BME280;43675;50.030;21.952;2023-01-25T14:33:29;100004.04;;;1.97;70.26
57847;BME280;43675;50.030;21.952;2023-01-25T14:36:10;99999.85;;;1.95;70.18
57847;BME280;43675;50.030;21.952;2023-01-25T14:38:40;100000.95;;;1.94;70.49
57847;BME280;43675;50.030;21.952;2023-01-25T14:41:17;99997.17;;;1.99;70.32
57847;BME280;43675;50.030;21.952;2023-01-25T14:43:47;99995.31;;;2.02;70.28
57847;BME280;43675;50.030;21.952;2023-01-25T14:48:44;99988.52;;;1.95;70.14
57847;BME280;43675;50.030;21.952;2023-01-25T14:51:24;99989.65;;;1.94;70.04